Millenium Air

Millenium Air Since 1998



 METAR AND TAF INFORMATION

Deprecated: The each() function is deprecated. This message will be suppressed on further calls in /var/www/virtual/milleniumair.it/htdocs/vam/helpers/get_metar.php on line 20
METAR FOR LIEO
ADDS - METARS form results

(0357 UTC 23 September 2021)
Data provider http://aviationweather.gov/metar/data/
 
METAR text: LIEO 230350Z 00000KT 9999 FEW030 15/15 Q1019
Conditions at: LIEO (OLBIA/COSTA SMER, IT) observed 0350 UTC 23 September 2021
Temperature: 15.0°C (59°F)
Dewpoint: 15.0°C (59°F) [RH = 100%]
Pressure (altimeter): 30.09 inches Hg (1019.0 mb)
Winds: calm
Visibility: 6 or more miles (10+ km)
Ceiling: at least 12,000 feet AGL
Clouds: few clouds at 3000 feet AGL
Weather: no significant weather observed at this time

METAR text: LIEO 230320Z 21002KT CAVOK 16/15 Q1020
Conditions at: LIEO (OLBIA/COSTA SMER, IT) observed 0320 UTC 23 September 2021
Temperature: 16.0°C (61°F)
Dewpoint: 15.0°C (59°F) [RH = 94%]
Pressure (altimeter): 30.12 inches Hg (1020.0 mb)
Winds: from the SSW (210 degrees) at 2 MPH (2 knots; 1.0 m/s)
Visibility: 6 or more miles (10+ km)
Ceiling: ceiling and visibility are OK
Clouds: unknown
Weather: no significant weather observed at this time

Forecast for: LIEO (OLBIA/COSTA SMER, IT)
Text: TAF LIEO 222300Z 2300/2324 VRB05KT 9999 FEW040
Forecast period: 0000 to 0900 UTC 23 September 2021
Forecast type: FROM: standard forecast or significant change
Winds: variable direction winds at 6 MPH (5 knots; 2.6 m/s)
Visibility: 6 or more miles (10+ km)
Ceiling: at least 12,000 feet AGL
Clouds: few clouds at 4000 feet AGL
Weather: no significant weather forecast for this period
Text: BECMG 2309/2311 13012KT
Forecast period: 0900 UTC 23 September 2021 to 0000 UTC 24 September 2021
Forecast type: BECOMING: Conditions expected to become as follows by 1100 UTC 23 September 2021
Winds: from the SE (130 degrees) at 14 MPH (12 knots; 6.2 m/s)
Visibility: 6 or more miles (10+ km)
Ceiling: at least 12,000 feet AGL
Clouds: few clouds at 4000 feet AGL
Weather: no significant weather forecast for this period

 AIRPORT MAP

 RUNWAY INFORMATION
Runway 05 Runway length 8025 ft Runway width 148 ft
Runway elevation 35 ft Runway displaced threshold 805 ft Runway heading 53
Runway 23 Runway length 8025 ft Runway width 148 ft
Runway elevation 19 ft Runway displaced threshold 495 ft Runway heading 233

 AIRPORT FREQUENCIES
Type APP Name OLBIA RADA Frequency 125.95 MHZ
Type ATIS Name ATIS Frequency 113.9 MHZ
Type TWR Name OLBIA TWR Frequency 118.975 MHZ

 AIRPORT NEAR NAVIGATION AIDS
Type VOR-DME Name Olbia Costa Smeralda Frequency 113900 KHZ
Type NDB Name Olbia Costa Smeralda Frequency 357 KHZ